Assen, Netherlands
Current Conditions -  °F | °C
As of 9:55 PM on Thursday 20 Nov 2014 (Local Time) from EHGG Reporting Station
Haze Haze  
Wind Chill: 37°   Ceiling: Unl
Heat Index: 37°   Visibility: 3mi
Dew Point: 37°   Wind: 3mph
Humidity: 100%   Direction: 110°ESE
Pressure: 30.36"   Gusts: NA
Location:  53°N, 6.56°E
Report Text: EHGG 202055Z AUTO 11003KT 080V150 5000 BR NCD 03/03 Q1028 BECMG1500 BCFG
Loading
Personal Weather Stations






























Interactive Weather Map New forecast layout! Learn more

10-Day Weather Forecast

Advertisements
Track Severe Weather on mobile